Main page
METAR-TAF:

METAR-TAF

Airports :

Piarco International Airport

Port of Spain, Trinidad, Trinidad and Tobago

latitude: 10-37N, longitude: 061-21W, elevation: 12 m

Current weather observation

The report was made 1 hour and 9 minutes ago, at 23:00 UTC
Calm wind
Temperature 25°C
Humidity 89%
Pressure 1010 hPa
Visibility 10 km or more
Few clouds at a height of 1200 ft

METAR: TTPP 102300Z 00000KT 9999 FEW012 25/23 Q1010 NOSIG

Time: 20:09 (00:09 UTC)

Forecast

The report was made 2 hours and 9 minutes ago, at 22:00 UTC
Forecast valid from 11 at 00 UTC to 11 at 24 UTC
Wind kt from the North
Visibility 10 km or more
Few clouds at a height of 1800 ft
Scattered clouds at a height of 3800 ft
Becoming
from 11 at 12 UTC to 11 at 14 UTC
Wind 10 kt from the East/Southeast
Few clouds at a height of 1800 ft
Scattered clouds at a height of 4000 ft

TAF: TTPP 102200Z 1100/1124 00000KT 9999 FEW018 SCT038 BECMG 1112/1114 11010KT FEW018 SCT040

Weather observations and forecasts of more than 4000 airports (METAR and TAF reports).

The available stations are represented by yellow and red dots on the map.

Hover mouse over dot to see the name of the station.

Then click to see weather observations and forecasts.

To change the map : click on the green buttons with a black cross to zoom in, on the green button with a dash to zoom out, or on the green arrows for adjacent maps.


METAR-TAF: